Time;durP1;ratioP1;P1;durP2;ratioP2;P2;SDS_P1;SDS_P2;PMS_P1;PMS_P2;Temp;Humidity;BMP_temperature;BMP_pressure;BME280_temperature;BME280_humidity;BME280_pressure;Samples;Min_cycle;Max_cycle;Signal;HPM_P1;HPM_P2
2024/01/01 00:00:12;;;;;;;10.73;5.45;;;;;;;;;;520775;28;1361;-78
2024/01/01 00:00:27;;;;;;;8.30;4.28;;;;;;;;;;519894;28;1067;-79
2024/01/01 00:00:42;;;;;;;7.93;3.70;;;;;;;;;;518122;28;1358;-79
2024/01/01 00:00:58;;;;;;;7.83;3.60;;;;;;;;;;520280;28;1296;-80
2024/01/01 00:01:13;;;;;;;7.50;3.50;;;;;;;;;;519422;28;1839;-78
2024/01/01 00:01:28;;;;;;;6.83;3.03;;;;;;;;;;522440;28;1315;-77
2024/01/01 00:01:44;;;;;;;5.97;2.60;;;;;;;;;;523801;28;1355;-79
2024/01/01 00:01:59;;;;;;;5.32;2.33;;;;;;;;;;523929;28;1388;-79
2024/01/01 00:02:14;;;;;;;5.63;2.37;;;;;;;;;;522401;28;1416;-78
2024/01/01 00:02:30;;;;;;;7.70;2.83;;;;;;;;;;522604;28;1380;-81
2024/01/01 00:02:45;;;;;;;8.05;3.00;;;;;;;;;;521917;28;1916;-78
2024/01/01 00:03:00;;;;;;;6.33;2.63;;;;;;;;;;522126;28;1427;-77
2024/01/01 00:03:16;;;;;;;6.13;2.63;;;;;;;;;;520609;28;1779;-77
2024/01/01 00:03:31;;;;;;;7.17;2.87;;;;;;;;;;520675;28;1225;-78
2024/01/01 00:03:46;;;;;;;7.57;2.83;;;;;;;;;;519630;28;1492;-79
2024/01/01 00:04:01;;;;;;;7.50;2.80;;;;;;;;;;517366;28;1163;-79
2024/01/01 00:04:17;;;;;;;7.80;2.70;;;;;;;;;;520266;28;1524;-78
2024/01/01 00:04:32;;;;;;;8.23;3.25;;;;;;;;;;520390;28;1492;-78
2024/01/01 00:04:47;;;;;;;10.57;3.80;;;;;;;;;;519106;28;1210;-78
2024/01/01 00:05:03;;;;;;;10.17;3.37;;;;;;;;;;520660;28;1416;-78
2024/01/01 00:05:18;;;;;;;7.88;3.10;;;;;;;;;;520883;28;1439;-78
2024/01/01 00:05:36;;;;;;;8.20;3.40;;;;;;;;;;521027;28;1356;-77
2024/01/01 00:05:51;;;;;;;7.20;3.22;;;;;;;;;;521434;28;1336;-77
2024/01/01 00:06:06;;;;;;;7.17;3.10;;;;;;;;;;521331;28;2165;-77
2024/01/01 00:06:22;;;;;;;7.53;3.10;;;;;;;;;;520762;28;1566;-77
2024/01/01 00:06:37;;;;;;;7.45;2.88;;;;;;;;;;520016;28;1308;-77
2024/01/01 00:06:52;;;;;;;6.23;2.67;;;;;;;;;;521378;28;1926;-79
2024/01/01 00:07:07;;;;;;;5.37;2.43;;;;;;;;;;522133;28;1225;-78
2024/01/01 00:07:23;;;;;;;6.13;2.30;;;;;;;;;;520196;28;1305;-77
2024/01/01 00:07:38;;;;;;;6.85;2.30;;;;;;;;;;520546;28;2186;-77
2024/01/01 00:07:53;;;;;;;5.97;2.00;;;;;;;;;;521397;28;1591;-77
2024/01/01 00:08:09;;;;;;;5.87;2.03;;;;;;;;;;520873;28;1335;-77
2024/01/01 00:08:24;;;;;;;6.70;2.40;;;;;;;;;;521726;28;1496;-77
2024/01/01 00:08:39;;;;;;;6.10;2.40;;;;;;;;;;521804;28;1448;-78
2024/01/01 00:08:55;;;;;;;5.93;2.30;;;;;;;;;;521513;28;1496;-78
2024/01/01 00:09:10;;;;;;;6.70;2.38;;;;;;;;;;520887;28;1679;-77
2024/01/01 00:09:25;;;;;;;7.77;2.53;;;;;;;;;;521629;28;1853;-77
2024/01/01 00:09:40;;;;;;;7.77;2.57;;;;;;;;;;521056;28;1420;-80
2024/01/01 00:09:56;;;;;;;6.17;2.30;;;;;;;;;;520654;28;1510;-78
2024/01/01 00:10:11;;;;;;;6.93;2.33;;;;;;;;;;519132;28;1180;-77
2024/01/01 00:10:26;;;;;;;7.77;2.47;;;;;;;;;;521524;28;1308;-78
2024/01/01 00:10:44;;;;;;;6.97;2.40;;;;;;;;;;519725;28;1369;-77
2024/01/01 00:10:59;;;;;;;6.10;2.33;;;;;;;;;;518869;28;2052;-77
2024/01/01 00:11:14;;;;;;;5.37;2.30;;;;;;;;;;519075;28;1544;-77
2024/01/01 00:11:29;;;;;;;6.53;2.40;;;;;;;;;;521602;28;1394;-78
2024/01/01 00:11:45;;;;;;;7.15;2.50;;;;;;;;;;520865;28;1486;-77
2024/01/01 00:12:00;;;;;;;6.13;2.50;;;;;;;;;;521672;28;1356;-78
2024/01/01 00:12:15;;;;;;;5.37;2.30;;;;;;;;;;521606;28;1363;-78
2024/01/01 00:12:32;;;;;;;5.27;2.30;;;;;;;;;;521304;28;1864;-78
2024/01/01 00:12:48;;;;;;;5.60;2.42;;;;;;;;;;520220;28;1263;-80
2024/01/01 00:13:03;;;;;;;6.77;2.60;;;;;;;;;;517518;28;1546;-78
2024/01/01 00:13:19;;;;;;;7.70;3.00;;;;;;;;;;518104;28;1373;-80
2024/01/01 00:13:34;;;;;;;7.55;3.03;;;;;;;;;;518745;28;1669;-78
2024/01/01 00:13:49;;;;;;;6.37;2.80;;;;;;;;;;520467;28;1351;-81
2024/01/01 00:14:05;;;;;;;5.57;2.60;;;;;;;;;;521456;28;1797;-79
2024/01/01 00:14:20;;;;;;;5.43;2.40;;;;;;;;;;520021;28;1400;-81
2024/01/01 00:14:35;;;;;;;5.70;2.47;;;;;;;;;;519780;28;1521;-79
2024/01/01 00:14:51;;;;;;;7.77;2.83;;;;;;;;;;520083;28;1357;-78
2024/01/01 00:15:06;;;;;;;11.30;3.10;;;;;;;;;;517865;28;1538;-78
2024/01/01 00:15:21;;;;;;;10.80;3.27;;;;;;;;;;520229;28;1361;-78
2024/01/01 00:15:37;;;;;;;8.43;3.10;;;;;;;;;;519289;28;1226;-78
2024/01/01 00:15:52;;;;;;;7.73;2.90;;;;;;;;;;521837;28;2216;-79
2024/01/01 00:16:08;;;;;;;7.88;2.85;;;;;;;;;;519360;28;1763;-77
2024/01/01 00:16:23;;;;;;;8.10;2.97;;;;;;;;;;522327;28;1357;-78
2024/01/01 00:16:38;;;;;;;7.70;2.80;;;;;;;;;;520172;28;1361;-77
2024/01/01 00:16:54;;;;;;;8.00;2.67;;;;;;;;;;520758;28;1580;-79
2024/01/01 00:17:09;;;;;;;7.73;2.60;;;;;;;;;;520382;28;1423;-78
2024/01/01 00:17:24;;;;;;;6.73;2.40;;;;;;;;;;521894;28;1774;-80
2024/01/01 00:17:40;;;;;;;7.65;2.40;;;;;;;;;;522564;28;1435;-78
2024/01/01 00:17:56;;;;;;;7.47;2.30;;;;;;;;;;522598;28;1327;-78
2024/01/01 00:18:13;;;;;;;4.70;2.10;;;;;;;;;;521092;28;1147;-78
2024/01/01 00:18:28;;;;;;;6.70;2.58;;;;;;;;;;521516;28;1194;-77
2024/01/01 00:18:44;;;;;;;6.78;2.58;;;;;;;;;;522107;28;1367;-78
2024/01/01 00:18:59;;;;;;;5.70;2.20;;;;;;;;;;522904;28;1559;-79
2024/01/01 00:19:14;;;;;;;6.70;2.30;;;;;;;;;;523450;28;1543;-78
2024/01/01 00:19:30;;;;;;;7.22;2.33;;;;;;;;;;521731;28;1423;-77
2024/01/01 00:19:45;;;;;;;6.03;2.20;;;;;;;;;;522496;28;1383;-79
2024/01/01 00:20:00;;;;;;;5.90;2.10;;;;;;;;;;523043;28;1379;-78
2024/01/01 00:20:16;;;;;;;6.10;2.20;;;;;;;;;;523960;28;1796;-78
2024/01/01 00:20:31;;;;;;;5.83;2.20;;;;;;;;;;521984;28;1227;-79
2024/01/01 00:20:46;;;;;;;6.17;2.30;;;;;;;;;;522660;28;1622;-79
2024/01/01 00:21:02;;;;;;;6.88;2.40;;;;;;;;;;522443;28;1328;-78
2024/01/01 00:21:17;;;;;;;7.33;2.50;;;;;;;;;;523378;28;1269;-78
2024/01/01 00:21:33;;;;;;;7.57;2.70;;;;;;;;;;523710;28;1442;-78
2024/01/01 00:21:48;;;;;;;7.27;2.70;;;;;;;;;;523999;28;1372;-78
2024/01/01 00:22:03;;;;;;;7.03;2.70;;;;;;;;;;523160;28;1819;-78
2024/01/01 00:22:18;;;;;;;5.82;2.50;;;;;;;;;;523609;28;2172;-77
2024/01/01 00:22:34;;;;;;;6.17;2.60;;;;;;;;;;522802;28;1513;-78
2024/01/01 00:22:50;;;;;;;7.13;2.75;;;;;;;;;;525201;28;1396;-78
2024/01/01 00:23:05;;;;;;;6.63;2.70;;;;;;;;;;522921;28;1407;-78
2024/01/01 00:23:20;;;;;;;7.70;2.53;;;;;;;;;;523640;28;1414;-79
2024/01/01 00:23:35;;;;;;;8.50;2.40;;;;;;;;;;524678;28;1493;-80
2024/01/01 00:23:51;;;;;;;7.60;2.60;;;;;;;;;;522411;28;1832;-80
2024/01/01 00:24:06;;;;;;;7.07;2.63;;;;;;;;;;522632;28;1648;-78
2024/01/01 00:24:21;;;;;;;7.28;2.70;;;;;;;;;;521849;28;1459;-78
2024/01/01 00:24:37;;;;;;;8.70;2.60;;;;;;;;;;523078;28;1470;-79
2024/01/01 00:24:52;;;;;;;6.93;2.17;;;;;;;;;;521788;28;1557;-78
2024/01/01 00:25:08;;;;;;;5.07;2.00;;;;;;;;;;522766;28;1329;-77
2024/01/01 00:25:23;;;;;;;6.30;2.10;;;;;;;;;;522249;28;1565;-78
2024/01/01 00:25:39;;;;;;;6.70;2.27;;;;;;;;;;520706;28;1375;-78
2024/01/01 00:25:54;;;;;;;6.17;2.50;;;;;;;;;;520854;28;1314;-79
2024/01/01 00:26:09;;;;;;;5.63;2.50;;;;;;;;;;519847;28;1572;-78
2024/01/01 00:26:24;;;;;;;5.90;2.40;;;;;;;;;;519093;28;1306;-78
2024/01/01 00:26:40;;;;;;;6.20;2.50;;;;;;;;;;519078;28;1957;-78
2024/01/01 00:26:55;;;;;;;5.87;2.63;;;;;;;;;;518562;28;1433;-78
2024/01/01 00:27:10;;;;;;;5.80;3.00;;;;;;;;;;517204;28;2937;-80
2024/01/01 00:27:26;;;;;;;6.57;3.13;;;;;;;;;;517718;28;1602;-79
2024/01/01 00:27:41;;;;;;;6.70;3.23;;;;;;;;;;518637;28;1446;-78
2024/01/01 00:27:56;;;;;;;6.60;3.17;;;;;;;;;;516863;28;1823;-79
2024/01/01 00:28:12;;;;;;;6.60;3.07;;;;;;;;;;515848;28;1475;-80
2024/01/01 00:28:27;;;;;;;8.33;3.73;;;;;;;;;;518017;28;1253;-81
2024/01/01 00:28:42;;;;;;;10.65;4.93;;;;;;;;;;520113;28;1844;-79
2024/01/01 00:28:57;;;;;;;10.27;4.73;;;;;;;;;;519837;28;1307;-78
2024/01/01 00:29:13;;;;;;;7.13;3.20;;;;;;;;;;522131;28;1515;-78
2024/01/01 00:29:28;;;;;;;6.13;2.40;;;;;;;;;;522128;28;1401;-79
2024/01/01 00:29:43;;;;;;;6.80;2.40;;;;;;;;;;520250;28;1344;-79
2024/01/01 00:30:00;;;;;;;5.97;2.30;;;;;;;;;;520185;28;1432;-79
2024/01/01 00:30:15;;;;;;;6.88;2.50;;;;;;;;;;519640;28;1627;-81
2024/01/01 00:30:30;;;;;;;8.70;2.77;;;;;;;;;;520002;28;1522;-79
2024/01/01 00:30:46;;;;;;;8.47;3.10;;;;;;;;;;520381;28;1655;-81
2024/01/01 00:31:01;;;;;;;7.70;3.10;;;;;;;;;;522084;28;1432;-79
2024/01/01 00:31:16;;;;;;;7.93;3.07;;;;;;;;;;521302;28;1295;-80
2024/01/01 00:31:32;;;;;;;6.50;3.00;;;;;;;;;;525878;28;1335;-78
2024/01/01 00:31:47;;;;;;;6.00;2.70;;;;;;;;;;524472;28;1331;-80
2024/01/01 00:32:05;;;;;;;6.80;2.57;;;;;;;;;;524278;28;2147;-81
2024/01/01 00:32:20;;;;;;;6.90;2.60;;;;;;;;;;526520;27;1418;-79
2024/01/01 00:32:35;;;;;;;6.30;2.67;;;;;;;;;;526780;28;1602;-79
2024/01/01 00:32:51;;;;;;;7.03;3.07;;;;;;;;;;525053;28;1428;-82
2024/01/01 00:33:06;;;;;;;8.82;3.78;;;;;;;;;;522412;28;1561;-79
2024/01/01 00:33:21;;;;;;;9.40;3.97;;;;;;;;;;523854;28;1414;-79
2024/01/01 00:33:37;;;;;;;10.13;4.73;;;;;;;;;;522040;28;1867;-79
2024/01/01 00:33:52;;;;;;;10.20;4.93;;;;;;;;;;523765;28;1479;-79
2024/01/01 00:34:07;;;;;;;9.23;4.00;;;;;;;;;;522846;28;1161;-80
2024/01/01 00:34:23;;;;;;;7.50;3.20;;;;;;;;;;521584;28;1483;-78
2024/01/01 00:34:38;;;;;;;6.18;2.70;;;;;;;;;;521912;28;1392;-78
2024/01/01 00:34:53;;;;;;;5.90;2.77;;;;;;;;;;522643;28;1597;-80
2024/01/01 00:35:08;;;;;;;7.33;3.07;;;;;;;;;;522582;28;1877;-79
2024/01/01 00:35:24;;;;;;;7.33;2.90;;;;;;;;;;521858;28;1465;-79
2024/01/01 00:35:39;;;;;;;7.10;2.50;;;;;;;;;;522282;28;1467;-79
2024/01/01 00:35:54;;;;;;;7.27;2.50;;;;;;;;;;521875;28;1813;-79
2024/01/01 00:36:10;;;;;;;7.00;2.50;;;;;;;;;;523245;28;1199;-80
2024/01/01 00:36:25;;;;;;;7.87;2.57;;;;;;;;;;523614;28;1471;-79
2024/01/01 00:36:41;;;;;;;7.17;2.73;;;;;;;;;;525325;28;1837;-78
2024/01/01 00:36:56;;;;;;;5.43;2.53;;;;;;;;;;525607;28;1574;-79
2024/01/01 00:37:11;;;;;;;5.63;2.50;;;;;;;;;;525094;28;1213;-80
2024/01/01 00:37:27;;;;;;;5.57;2.40;;;;;;;;;;523343;28;1201;-79
2024/01/01 00:37:42;;;;;;;6.28;2.45;;;;;;;;;;523744;28;1414;-79
2024/01/01 00:37:57;;;;;;;7.57;2.80;;;;;;;;;;522690;28;1441;-79
2024/01/01 00:38:13;;;;;;;6.67;2.80;;;;;;;;;;522387;28;1134;-79
2024/01/01 00:38:28;;;;;;;6.35;2.83;;;;;;;;;;521602;28;1875;-78
2024/01/01 00:38:44;;;;;;;7.47;2.90;;;;;;;;;;523420;28;1375;-78
2024/01/01 00:39:00;;;;;;;7.63;3.00;;;;;;;;;;523403;28;1453;-78
2024/01/01 00:39:15;;;;;;;7.05;3.00;;;;;;;;;;523294;28;1143;-78
2024/01/01 00:39:30;;;;;;;7.47;2.90;;;;;;;;;;523891;28;1380;-77
2024/01/01 00:39:46;;;;;;;8.70;2.95;;;;;;;;;;524428;28;1250;-78
2024/01/01 00:40:02;;;;;;;8.27;3.00;;;;;;;;;;523984;28;1845;-79
2024/01/01 00:40:17;;;;;;;7.45;2.80;;;;;;;;;;521392;28;1543;-78
2024/01/01 00:40:33;;;;;;;6.47;2.63;;;;;;;;;;522058;28;1356;-79
2024/01/01 00:40:48;;;;;;;6.68;2.60;;;;;;;;;;522846;28;1443;-80
2024/01/01 00:41:03;;;;;;;7.10;2.50;;;;;;;;;;522203;28;1375;-80
2024/01/01 00:41:19;;;;;;;6.97;2.63;;;;;;;;;;521501;28;1345;-78
2024/01/01 00:41:36;;;;;;;6.37;2.93;;;;;;;;;;523543;28;1360;-78
2024/01/01 00:41:52;;;;;;;6.35;2.83;;;;;;;;;;522628;28;1157;-79
2024/01/01 00:42:07;;;;;;;6.73;2.70;;;;;;;;;;520875;28;1435;-78
2024/01/01 00:42:24;;;;;;;9.55;2.90;;;;;;;;;;523016;28;1368;-78
2024/01/01 00:42:42;;;;;;;8.20;2.65;;;;;;;;;;523728;28;1396;-78
2024/01/01 00:42:58;;;;;;;6.07;2.42;;;;;;;;;;522725;28;1222;-78
2024/01/01 00:43:13;;;;;;;7.03;2.60;;;;;;;;;;521702;28;1961;-78
2024/01/01 00:43:28;;;;;;;7.03;2.73;;;;;;;;;;524310;28;1474;-78
2024/01/01 00:43:44;;;;;;;8.93;3.45;;;;;;;;;;524042;28;1442;-79
2024/01/01 00:43:59;;;;;;;10.17;3.90;;;;;;;;;;525358;28;1434;-79
2024/01/01 00:44:14;;;;;;;9.80;3.73;;;;;;;;;;526051;28;1354;-78
2024/01/01 00:44:31;;;;;;;8.00;3.13;;;;;;;;;;524531;28;1383;-77
2024/01/01 00:44:46;;;;;;;6.85;2.75;;;;;;;;;;523880;28;1234;-78
2024/01/01 00:45:02;;;;;;;7.15;2.70;;;;;;;;;;521292;28;1408;-78
2024/01/01 00:45:17;;;;;;;8.23;2.97;;;;;;;;;;518261;28;1792;-78
2024/01/01 00:45:32;;;;;;;7.97;3.00;;;;;;;;;;517693;28;1200;-80
2024/01/01 00:45:48;;;;;;;7.38;3.10;;;;;;;;;;518673;28;1076;-80
2024/01/01 00:46:03;;;;;;;8.00;3.10;;;;;;;;;;519383;28;1041;-79
2024/01/01 00:46:18;;;;;;;7.10;2.72;;;;;;;;;;519715;28;1201;-78
2024/01/01 00:46:34;;;;;;;6.83;2.70;;;;;;;;;;521573;28;783;-80
2024/01/01 00:46:49;;;;;;;7.00;2.90;;;;;;;;;;520837;28;1974;-79
2024/01/01 00:47:04;;;;;;;6.67;2.80;;;;;;;;;;521357;28;984;-80
2024/01/01 00:47:20;;;;;;;7.15;2.90;;;;;;;;;;521511;28;1194;-80
2024/01/01 00:47:35;;;;;;;6.57;2.60;;;;;;;;;;523697;28;889;-80
2024/01/01 00:47:50;;;;;;;5.97;2.60;;;;;;;;;;521548;28;1165;-78
2024/01/01 00:48:06;;;;;;;7.68;3.50;;;;;;;;;;520819;28;1325;-79
2024/01/01 00:48:21;;;;;;;13.73;5.90;;;;;;;;;;521614;28;810;-78
2024/01/01 00:48:37;;;;;;;14.82;6.28;;;;;;;;;;521697;28;1052;-80
2024/01/01 00:48:52;;;;;;;10.80;4.50;;;;;;;;;;522829;28;1023;-78
2024/01/01 00:49:07;;;;;;;8.63;3.55;;;;;;;;;;523415;28;1104;-79
2024/01/01 00:49:23;;;;;;;7.27;3.23;;;;;;;;;;523551;28;1190;-79
2024/01/01 00:49:38;;;;;;;5.43;2.50;;;;;;;;;;523872;28;1009;-79
2024/01/01 00:49:53;;;;;;;6.73;2.37;;;;;;;;;;525667;28;1216;-78
2024/01/01 00:50:09;;;;;;;8.60;2.78;;;;;;;;;;525502;28;1154;-79
2024/01/01 00:50:24;;;;;;;7.87;2.70;;;;;;;;;;525822;28;802;-79
2024/01/01 00:50:39;;;;;;;6.80;2.60;;;;;;;;;;523315;28;1053;-81
2024/01/01 00:50:55;;;;;;;6.90;2.67;;;;;;;;;;523542;28;893;-79
2024/01/01 00:51:10;;;;;;;8.03;2.70;;;;;;;;;;523322;28;1088;-78
2024/01/01 00:51:26;;;;;;;6.53;2.60;;;;;;;;;;521632;28;858;-78
2024/01/01 00:51:41;;;;;;;5.47;2.50;;;;;;;;;;521272;28;870;-79
2024/01/01 00:51:57;;;;;;;7.70;2.60;;;;;;;;;;519679;28;1185;-76
2024/01/01 00:52:12;;;;;;;8.30;2.63;;;;;;;;;;521136;28;1239;-78
2024/01/01 00:52:27;;;;;;;7.70;2.63;;;;;;;;;;521956;28;827;-79
2024/01/01 00:52:43;;;;;;;8.97;2.70;;;;;;;;;;523639;28;909;-79
2024/01/01 00:52:58;;;;;;;9.17;2.93;;;;;;;;;;521999;28;1812;-77
2024/01/01 00:53:13;;;;;;;6.93;2.63;;;;;;;;;;523523;28;918;-77
2024/01/01 00:53:29;;;;;;;5.73;2.30;;;;;;;;;;523422;28;1163;-79
2024/01/01 00:53:44;;;;;;;5.40;2.40;;;;;;;;;;522140;28;1108;-79
2024/01/01 00:53:59;;;;;;;6.23;2.70;;;;;;;;;;523308;28;1083;-78
2024/01/01 00:54:14;;;;;;;6.90;2.70;;;;;;;;;;522257;28;1033;-79
2024/01/01 00:54:30;;;;;;;6.53;2.60;;;;;;;;;;521671;28;849;-79
2024/01/01 00:54:45;;;;;;;5.75;2.50;;;;;;;;;;521737;28;877;-78
2024/01/01 00:55:01;;;;;;;5.30;2.40;;;;;;;;;;523612;28;1071;-78
2024/01/01 00:55:16;;;;;;;5.73;2.40;;;;;;;;;;524156;28;845;-79
2024/01/01 00:55:31;;;;;;;6.50;2.55;;;;;;;;;;523543;28;1404;-80
2024/01/01 00:55:47;;;;;;;6.73;2.70;;;;;;;;;;521325;28;1280;-78
2024/01/01 00:56:03;;;;;;;7.65;2.78;;;;;;;;;;520565;28;1317;-80
2024/01/01 00:56:18;;;;;;;9.13;3.00;;;;;;;;;;523681;28;748;-82
2024/01/01 00:56:33;;;;;;;9.05;3.63;;;;;;;;;;521459;28;819;-79
2024/01/01 00:56:51;;;;;;;10.30;4.60;;;;;;;;;;519134;28;1295;-82
2024/01/01 00:57:06;;;;;;;11.52;4.45;;;;;;;;;;519202;28;1036;-78
2024/01/01 00:57:21;;;;;;;11.00;4.03;;;;;;;;;;519397;28;1080;-78
2024/01/01 00:57:37;;;;;;;10.47;4.50;;;;;;;;;;518852;28;1959;-77
2024/01/01 00:57:52;;;;;;;10.83;4.67;;;;;;;;;;516885;28;1452;-79
2024/01/01 00:58:08;;;;;;;10.13;3.97;;;;;;;;;;517963;28;1508;-79
2024/01/01 00:58:23;;;;;;;9.48;3.40;;;;;;;;;;519961;28;1652;-79
2024/01/01 00:58:39;;;;;;;8.57;3.10;;;;;;;;;;521671;28;1826;-80
2024/01/01 00:58:54;;;;;;;10.13;3.30;;;;;;;;;;523595;28;913;-78
2024/01/01 00:59:09;;;;;;;10.30;3.50;;;;;;;;;;523381;28;1103;-77
2024/01/01 00:59:25;;;;;;;9.27;3.40;;;;;;;;;;523658;28;897;-76
2024/01/01 00:59:41;;;;;;;9.18;3.30;;;;;;;;;;523788;28;861;-77
2024/01/01 00:59:56;;;;;;;8.20;3.03;;;;;;;;;;525853;28;1012;-78
2024/01/01 01:00:12;;;;;;;8.18;3.05;;;;;;;;;;525432;28;936;-77
2024/01/01 01:00:27;;;;;;;7.47;3.30;;;;;;;;;;525899;28;878;-76
2024/01/01 01:00:43;;;;;;;7.77;3.50;;;;;;;;;;523444;28;1296;-76
2024/01/01 01:00:58;;;;;;;9.38;3.50;;;;;;;;;;521118;28;1421;-78
2024/01/01 01:01:14;;;;;;;8.60;3.50;;;;;;;;;;519087;28;1657;-76
2024/01/01 01:01:29;;;;;;;9.20;3.73;;;;;;;;;;517049;28;1348;-77
2024/01/01 01:01:44;;;;;;;8.95;3.40;;;;;;;;;;514962;28;1275;-77
2024/01/01 01:01:59;;;;;;;7.33;2.93;;;;;;;;;;515402;28;1144;-77
2024/01/01 01:02:15;;;;;;;6.67;2.70;;;;;;;;;;515431;28;882;-78
2024/01/01 01:02:30;;;;;;;6.88;2.75;;;;;;;;;;515376;28;1182;-77
2024/01/01 01:02:46;;;;;;;8.80;3.00;;;;;;;;;;515708;28;815;-79
2024/01/01 01:03:01;;;;;;;8.68;3.00;;;;;;;;;;517551;28;1018;-80
2024/01/01 01:03:16;;;;;;;7.70;3.03;;;;;;;;;;519565;28;815;-81
2024/01/01 01:03:34;;;;;;;7.17;2.97;;;;;;;;;;521423;28;1048;-79
2024/01/01 01:03:49;;;;;;;7.00;2.70;;;;;;;;;;523690;28;905;-78
2024/01/01 01:04:06;;;;;;;7.17;2.70;;;;;;;;;;521410;28;1146;-78
2024/01/01 01:04:21;;;;;;;7.60;2.80;;;;;;;;;;522614;28;876;-79
2024/01/01 01:04:36;;;;;;;7.73;2.93;;;;;;;;;;523543;28;1310;-79
2024/01/01 01:04:52;;;;;;;8.20;3.00;;;;;;;;;;523688;28;822;-81
2024/01/01 01:05:08;;;;;;;7.88;2.95;;;;;;;;;;522076;28;1143;-78
2024/01/01 01:05:24;;;;;;;7.18;3.00;;;;;;;;;;521005;28;1747;-78
2024/01/01 01:05:39;;;;;;;8.40;3.22;;;;;;;;;;519793;28;909;-79
2024/01/01 01:05:55;;;;;;;9.87;3.80;;;;;;;;;;521812;28;1609;-79
2024/01/01 01:06:10;;;;;;;11.25;4.57;;;;;;;;;;525220;28;1405;-79
2024/01/01 01:06:25;;;;;;;10.87;4.53;;;;;;;;;;525562;28;1533;-78
2024/01/01 01:06:41;;;;;;;10.33;3.97;;;;;;;;;;523239;28;1122;-79
2024/01/01 01:06:56;;;;;;;9.95;3.75;;;;;;;;;;523507;28;846;-79
2024/01/01 01:07:11;;;;;;;9.33;3.60;;;;;;;;;;521163;28;1183;-77
2024/01/01 01:07:27;;;;;;;8.70;3.40;;;;;;;;;;519432;28;1608;-79
2024/01/01 01:07:42;;;;;;;7.70;3.30;;;;;;;;;;519424;28;1672;-78
2024/01/01 01:07:58;;;;;;;8.37;3.43;;;;;;;;;;519380;28;1637;-78
2024/01/01 01:08:14;;;;;;;9.18;3.33;;;;;;;;;;517510;28;882;-79
2024/01/01 01:08:29;;;;;;;9.35;3.08;;;;;;;;;;517898;28;811;-78
2024/01/01 01:08:44;;;;;;;9.10;3.13;;;;;;;;;;519340;28;1222;-80
2024/01/01 01:09:00;;;;;;;8.30;3.00;;;;;;;;;;519696;28;1068;-78
2024/01/01 01:09:15;;;;;;;8.95;3.03;;;;;;;;;;523618;28;889;-79
2024/01/01 01:09:31;;;;;;;9.07;3.17;;;;;;;;;;523287;28;900;-79
2024/01/01 01:09:47;;;;;;;8.73;3.40;;;;;;;;;;520742;28;1790;-79
2024/01/01 01:10:04;;;;;;;7.93;3.40;;;;;;;;;;520944;28;1267;-78
2024/01/01 01:10:19;;;;;;;6.78;3.10;;;;;;;;;;521764;28;967;-79
2024/01/01 01:10:34;;;;;;;7.23;3.17;;;;;;;;;;518857;28;878;-80
2024/01/01 01:10:50;;;;;;;10.93;4.20;;;;;;;;;;517456;28;810;-79
2024/01/01 01:11:05;;;;;;;12.97;5.03;;;;;;;;;;516147;28;1741;-79
2024/01/01 01:11:20;;;;;;;11.07;4.93;;;;;;;;;;517456;28;922;-79
2024/01/01 01:11:38;;;;;;;9.98;4.70;;;;;;;;;;517799;28;850;-78
2024/01/01 01:11:53;;;;;;;11.15;4.45;;;;;;;;;;519477;28;937;-79
2024/01/01 01:12:08;;;;;;;10.53;4.40;;;;;;;;;;521447;28;1426;-78
2024/01/01 01:12:24;;;;;;;9.67;4.50;;;;;;;;;;521803;28;1032;-78
2024/01/01 01:12:39;;;;;;;10.20;4.80;;;;;;;;;;523661;28;873;-80
2024/01/01 01:12:54;;;;;;;10.27;5.00;;;;;;;;;;524120;28;818;-80
2024/01/01 01:13:10;;;;;;;9.80;4.77;;;;;;;;;;525537;28;1090;-78
2024/01/01 01:13:25;;;;;;;11.38;5.05;;;;;;;;;;525619;28;866;-78
2024/01/01 01:13:41;;;;;;;12.37;5.77;;;;;;;;;;525450;28;877;-78
2024/01/01 01:13:56;;;;;;;10.85;5.57;;;;;;;;;;525396;28;873;-78
2024/01/01 01:14:11;;;;;;;11.77;5.10;;;;;;;;;;525582;28;1091;-80
2024/01/01 01:14:27;;;;;;;11.75;4.55;;;;;;;;;;523678;28;1314;-78
2024/01/01 01:14:43;;;;;;;11.50;4.33;;;;;;;;;;523370;28;1012;-78
2024/01/01 01:14:58;;;;;;;11.00;4.40;;;;;;;;;;521424;28;1247;-77
2024/01/01 01:15:13;;;;;;;9.07;4.13;;;;;;;;;;519384;28;1262;-79
2024/01/01 01:15:29;;;;;;;8.60;3.88;;;;;;;;;;519503;28;1048;-79
2024/01/01 01:15:45;;;;;;;9.95;3.78;;;;;;;;;;517033;28;1283;-78
2024/01/01 01:16:00;;;;;;;8.50;3.43;;;;;;;;;;517358;28;803;-78
2024/01/01 01:16:17;;;;;;;7.03;3.37;;;;;;;;;;516914;28;1121;-79
2024/01/01 01:16:32;;;;;;;9.95;3.65;;;;;;;;;;517408;28;905;-79
2024/01/01 01:16:48;;;;;;;10.73;4.07;;;;;;;;;;517500;28;1355;-78
2024/01/01 01:17:03;;;;;;;9.87;4.13;;;;;;;;;;520009;28;1853;-78
2024/01/01 01:17:19;;;;;;;8.65;3.88;;;;;;;;;;519610;28;1571;-78
2024/01/01 01:17:34;;;;;;;8.93;3.70;;;;;;;;;;519176;28;1406;-79
2024/01/01 01:17:50;;;;;;;10.40;3.70;;;;;;;;;;519238;28;1620;-79
2024/01/01 01:18:05;;;;;;;9.67;3.77;;;;;;;;;;518936;28;1666;-79
2024/01/01 01:18:21;;;;;;;9.35;3.80;;;;;;;;;;519452;28;846;-78
2024/01/01 01:18:36;;;;;;;9.93;3.67;;;;;;;;;;519623;28;1188;-79
2024/01/01 01:18:51;;;;;;;9.13;3.47;;;;;;;;;;521585;28;925;-78
2024/01/01 01:19:07;;;;;;;7.60;3.55;;;;;;;;;;521678;28;1012;-79
2024/01/01 01:19:22;;;;;;;7.33;3.50;;;;;;;;;;523461;28;888;-78
2024/01/01 01:19:37;;;;;;;8.43;3.80;;;;;;;;;;523535;28;1148;-79
2024/01/01 01:19:53;;;;;;;11.38;4.55;;;;;;;;;;523535;28;1057;-78
2024/01/01 01:20:08;;;;;;;12.03;4.80;;;;;;;;;;523520;28;869;-79
2024/01/01 01:20:23;;;;;;;10.23;4.43;;;;;;;;;;523500;28;1094;-78
2024/01/01 01:20:39;;;;;;;10.23;4.37;;;;;;;;;;523404;28;950;-78
2024/01/01 01:20:54;;;;;;;10.17;4.30;;;;;;;;;;521445;28;1283;-79
2024/01/01 01:21:10;;;;;;;9.57;4.27;;;;;;;;;;521417;28;1305;-79
2024/01/01 01:21:25;;;;;;;8.73;4.13;;;;;;;;;;520720;28;1299;-79
2024/01/01 01:21:41;;;;;;;8.07;4.03;;;;;;;;;;519311;28;906;-80
2024/01/01 01:21:56;;;;;;;9.07;4.07;;;;;;;;;;519140;28;885;-80
2024/01/01 01:22:12;;;;;;;10.10;4.13;;;;;;;;;;519296;28;1195;-79
2024/01/01 01:22:27;;;;;;;10.40;4.40;;;;;;;;;;519658;28;1578;-80
2024/01/01 01:22:42;;;;;;;9.63;4.45;;;;;;;;;;520473;28;937;-80
2024/01/01 01:22:58;;;;;;;8.40;4.10;;;;;;;;;;521191;28;1124;-78
2024/01/01 01:23:14;;;;;;;9.65;4.22;;;;;;;;;;522128;28;886;-78
2024/01/01 01:23:30;;;;;;;9.57;4.27;;;;;;;;;;525600;28;1313;-80
2024/01/01 01:23:45;;;;;;;8.85;4.07;;;;;;;;;;525566;28;1524;-78
2024/01/01 01:24:00;;;;;;;8.88;4.50;;;;;;;;;;523998;28;1215;-78
2024/01/01 01:24:18;;;;;;;9.17;4.70;;;;;;;;;;527708;28;833;-78
2024/01/01 01:24:33;;;;;;;9.43;4.40;;;;;;;;;;527156;28;959;-80
2024/01/01 01:24:48;;;;;;;8.73;4.40;;;;;;;;;;525088;28;1085;-79
2024/01/01 01:25:04;;;;;;;9.85;5.05;;;;;;;;;;523452;28;1024;-78
2024/01/01 01:25:19;;;;;;;10.70;5.40;;;;;;;;;;524198;28;976;-80
2024/01/01 01:25:35;;;;;;;10.25;5.40;;;;;;;;;;525584;28;810;-78
2024/01/01 01:25:51;;;;;;;10.93;5.28;;;;;;;;;;525883;28;881;-79
2024/01/01 01:26:06;;;;;;;9.97;4.63;;;;;;;;;;524535;28;1812;-78
2024/01/01 01:26:21;;;;;;;10.82;4.50;;;;;;;;;;523416;28;1417;-78
2024/01/01 01:26:36;;;;;;;10.87;4.50;;;;;;;;;;522885;28;1178;-78
2024/01/01 01:26:52;;;;;;;9.20;4.03;;;;;;;;;;520825;28;1918;-79
2024/01/01 01:27:07;;;;;;;10.10;4.10;;;;;;;;;;522731;28;1106;-80
2024/01/01 01:27:23;;;;;;;9.30;4.17;;;;;;;;;;523389;28;846;-78
2024/01/01 01:27:40;;;;;;;8.60;3.83;;;;;;;;;;523623;28;988;-78
2024/01/01 01:27:55;;;;;;;8.80;4.13;;;;;;;;;;523697;28;985;-79
2024/01/01 01:28:11;;;;;;;10.13;4.50;;;;;;;;;;521629;28;1173;-79
2024/01/01 01:28:26;;;;;;;10.87;4.37;;;;;;;;;;521485;28;870;-79
2024/01/01 01:28:41;;;;;;;9.88;4.00;;;;;;;;;;522125;28;957;-79
2024/01/01 01:28:57;;;;;;;9.33;3.87;;;;;;;;;;523650;28;849;-79
2024/01/01 01:29:12;;;;;;;10.10;3.90;;;;;;;;;;525476;28;1063;-78
2024/01/01 01:29:27;;;;;;;10.20;4.35;;;;;;;;;;525648;28;798;-78
2024/01/01 01:29:43;;;;;;;10.27;4.57;;;;;;;;;;523362;28;1281;-78
2024/01/01 01:29:58;;;;;;;9.80;4.40;;;;;;;;;;523476;28;1172;-78
2024/01/01 01:30:13;;;;;;;10.07;4.40;;;;;;;;;;523493;28;982;-78
2024/01/01 01:30:29;;;;;;;10.13;4.33;;;;;;;;;;523511;28;885;-78
2024/01/01 01:30:44;;;;;;;9.00;4.30;;;;;;;;;;523680;28;814;-78
2024/01/01 01:31:01;;;;;;;10.05;4.55;;;;;;;;;;523321;28;1051;-80
2024/01/01 01:31:17;;;;;;;10.95;4.65;;;;;;;;;;523599;28;929;-78
2024/01/01 01:31:32;;;;;;;10.43;4.68;;;;;;;;;;521896;28;1259;-79
2024/01/01 01:31:48;;;;;;;10.13;4.60;;;;;;;;;;523170;28;845;-78
2024/01/01 01:32:04;;;;;;;9.87;4.63;;;;;;;;;;523390;28;846;-79
2024/01/01 01:32:19;;;;;;;11.73;4.57;;;;;;;;;;521344;28;1089;-78
2024/01/01 01:32:34;;;;;;;10.80;4.20;;;;;;;;;;519389;28;1317;-79
2024/01/01 01:32:50;;;;;;;8.40;4.07;;;;;;;;;;519600;28;893;-79
2024/01/01 01:33:05;;;;;;;9.60;4.70;;;;;;;;;;520226;28;913;-78
2024/01/01 01:33:20;;;;;;;11.00;5.25;;;;;;;;;;520201;28;1883;-78
2024/01/01 01:33:36;;;;;;;12.40;5.23;;;;;;;;;;520515;28;965;-78
2024/01/01 01:33:52;;;;;;;11.55;4.78;;;;;;;;;;520036;28;989;-79
2024/01/01 01:34:08;;;;;;;11.02;4.60;;;;;;;;;;521309;28;929;-78
2024/01/01 01:34:23;;;;;;;10.68;4.82;;;;;;;;;;521377;28;815;-78
2024/01/01 01:34:38;;;;;;;9.43;4.83;;;;;;;;;;521416;28;885;-78
2024/01/01 01:34:54;;;;;;;9.17;5.20;;;;;;;;;;521466;28;1272;-78
2024/01/01 01:35:10;;;;;;;9.03;5.00;;;;;;;;;;524264;28;901;-78
2024/01/01 01:35:25;;;;;;;8.43;4.63;;;;;;;;;;525301;28;1312;-79
2024/01/01 01:35:41;;;;;;;8.10;4.37;;;;;;;;;;523572;28;1429;-78